createdAt,value
2023-04-10T00:02:15.429Z,15.80
2023-04-10T00:04:42.321Z,17.03
2023-04-10T00:07:09.416Z,14.20
2023-04-10T00:09:36.453Z,11.70
2023-04-10T00:12:03.530Z,14.77
2023-04-10T00:14:30.720Z,12.87
2023-04-10T00:16:57.870Z,15.33
2023-04-10T00:19:25.184Z,12.97
2023-04-10T00:21:52.196Z,14.20
2023-04-10T00:24:19.301Z,12.10
2023-04-10T00:26:46.316Z,15.00
2023-04-10T00:29:13.468Z,14.97
2023-04-10T00:31:40.689Z,14.40
2023-04-10T00:34:07.386Z,16.63
2023-04-10T00:36:34.103Z,14.27
2023-04-10T00:39:01.222Z,16.57
2023-04-10T00:41:29.398Z,12.90
2023-04-10T00:43:57.101Z,16.80
2023-04-10T00:46:27.553Z,13.67
2023-04-10T00:48:56.158Z,13.07
2023-04-10T00:51:23.254Z,15.43
2023-04-10T00:53:57.044Z,18.57
2023-04-10T00:56:24.693Z,13.37
2023-04-10T00:58:51.725Z,15.87
2023-04-10T01:01:19.023Z,14.77
2023-04-10T01:03:46.490Z,16.73
2023-04-10T01:06:35.432Z,18.40
2023-04-10T01:09:27.168Z,20.83
2023-04-10T01:11:58.510Z,17.20
2023-04-10T01:14:49.098Z,20.13
2023-04-10T01:17:28.726Z,21.17
2023-04-10T01:20:06.902Z,21.67
2023-04-10T01:23:11.649Z,23.67
2023-04-10T01:25:53.616Z,20.07
2023-04-10T01:28:48.787Z,19.03
2023-04-10T01:31:21.281Z,26.97
2023-04-10T01:33:51.718Z,21.43
2023-04-10T01:36:28.208Z,29.37
2023-04-10T01:38:55.708Z,21.03
2023-04-10T01:41:23.604Z,27.37
2023-04-10T01:43:52.762Z,20.77
2023-04-10T01:46:21.743Z,19.80
2023-04-10T01:48:50.747Z,20.87
2023-04-10T01:51:17.903Z,22.90
2023-04-10T01:53:48.087Z,22.90
2023-04-10T01:56:18.186Z,22.63
2023-04-10T01:58:47.248Z,23.87
2023-04-10T02:01:29.129Z,20.20
2023-04-10T02:03:57.217Z,21.03
2023-04-10T02:06:49.051Z,23.20
2023-04-10T02:09:23.221Z,23.67
2023-04-10T02:11:57.645Z,21.23
2023-04-10T02:14:28.361Z,27.60
2023-04-10T02:16:56.058Z,23.83
2023-04-10T02:19:27.549Z,22.63
2023-04-10T02:21:54.936Z,21.77
2023-04-10T02:24:22.176Z,20.27
2023-04-10T02:26:53.391Z,18.50
2023-04-10T02:29:20.509Z,19.70
2023-04-10T02:31:47.764Z,18.97
2023-04-10T02:34:14.918Z,16.17
2023-04-10T02:36:41.988Z,19.43
2023-04-10T02:39:11.403Z,21.60
2023-04-10T02:41:47.393Z,20.77
2023-04-10T02:44:14.737Z,18.30
2023-04-10T02:46:42.864Z,18.70
2023-04-10T02:49:11.108Z,20.33
2023-04-10T02:51:38.665Z,17.73
2023-04-10T02:54:05.987Z,21.13
2023-04-10T02:56:34.985Z,17.57
2023-04-10T02:59:02.245Z,20.10
2023-04-10T03:01:30.798Z,19.97
2023-04-10T03:03:58.499Z,18.50
2023-04-10T03:06:29.387Z,19.73
2023-04-10T03:08:58.033Z,19.43
2023-04-10T03:11:27.108Z,17.80
2023-04-10T03:13:55.037Z,17.87
2023-04-10T03:16:22.443Z,16.27
2023-04-10T03:18:49.872Z,16.23
2023-04-10T03:21:17.167Z,18.63
2023-04-10T03:23:44.232Z,24.70
2023-04-10T03:26:11.590Z,19.43
2023-04-10T03:28:39.559Z,20.40
2023-04-10T03:31:06.859Z,22.57
2023-04-10T03:33:36.369Z,19.57
2023-04-10T03:36:03.930Z,20.20
2023-04-10T03:38:32.592Z,20.87
2023-04-10T03:40:59.755Z,16.43
2023-04-10T03:43:31.128Z,19.33
2023-04-10T03:45:58.742Z,17.03
2023-04-10T03:48:30.420Z,19.03
2023-04-10T03:50:57.577Z,17.40
2023-04-10T03:53:25.371Z,17.33
2023-04-10T03:55:54.148Z,20.37
2023-04-10T03:58:22.915Z,18.03
2023-04-10T04:00:51.470Z,18.97
2023-04-10T04:03:31.153Z,18.20
2023-04-10T04:06:01.281Z,21.67
2023-04-10T04:08:36.081Z,16.83
2023-04-10T04:11:24.397Z,18.23
2023-04-10T04:14:17.749Z,17.90
2023-04-10T04:16:55.830Z,19.33
2023-04-10T04:19:37.207Z,18.03
2023-04-10T04:22:25.617Z,20.50
2023-04-10T04:25:11.572Z,17.13
2023-04-10T04:27:57.711Z,22.87
2023-04-10T04:30:34.448Z,22.37
2023-04-10T04:33:13.990Z,18.30
2023-04-10T04:35:49.803Z,20.47
2023-04-10T04:38:26.362Z,16.93
2023-04-10T04:41:08.855Z,17.60
2023-04-10T04:43:42.963Z,18.10
2023-04-10T04:46:21.856Z,15.20
2023-04-10T04:48:54.333Z,15.97
2023-04-10T04:51:54.150Z,17.57
2023-04-10T04:54:37.562Z,15.27
2023-04-10T04:57:27.929Z,13.70
2023-04-10T05:00:08.040Z,15.53
2023-04-10T05:03:01.735Z,16.83
2023-04-10T05:05:47.958Z,14.43
2023-04-10T05:08:26.209Z,14.73
2023-04-10T05:11:07.384Z,15.97
2023-04-10T05:13:53.228Z,14.13
2023-04-10T05:16:35.761Z,14.60
2023-04-10T05:19:14.506Z,15.20
2023-04-10T05:21:55.629Z,14.77
2023-04-10T05:24:44.573Z,14.07
2023-04-10T05:27:14.957Z,14.73
2023-04-10T05:30:02.619Z,15.80
2023-04-10T05:32:52.950Z,17.07
2023-04-10T05:35:43.790Z,14.00
2023-04-10T05:38:38.138Z,12.90
2023-04-10T05:41:16.458Z,14.77
2023-04-10T05:43:59.122Z,12.93
2023-04-10T05:46:43.082Z,15.53
2023-04-10T05:49:23.702Z,12.80
2023-04-10T05:51:53.817Z,13.93
2023-04-10T05:54:35.185Z,13.83
2023-04-10T05:57:20.672Z,11.80
2023-04-10T06:00:22.043Z,15.57
2023-04-10T06:03:09.740Z,13.50
2023-04-10T06:05:47.067Z,13.53
2023-04-10T06:08:14.222Z,13.50
2023-04-10T06:10:42.094Z,11.93
2023-04-10T06:13:11.478Z,12.43
2023-04-10T06:15:38.882Z,13.33
2023-04-10T06:18:06.063Z,12.17
2023-04-10T06:20:33.119Z,12.00
2023-04-10T06:23:00.536Z,12.40
2023-04-10T06:25:27.664Z,11.67
2023-04-10T06:27:54.772Z,11.63
2023-04-10T06:30:21.971Z,9.43
2023-04-10T06:32:49.168Z,11.23
2023-04-10T06:35:16.686Z,9.53
2023-04-10T06:37:43.977Z,10.57
2023-04-10T06:40:13.520Z,10.20
2023-04-10T06:42:41.393Z,13.00
2023-04-10T06:45:14.326Z,11.03
2023-04-10T06:47:41.447Z,9.83
2023-04-10T06:50:08.690Z,10.20
2023-04-10T06:52:35.860Z,10.03
2023-04-10T06:55:02.960Z,10.57
2023-04-10T06:57:30.399Z,10.30
2023-04-10T06:59:57.466Z,11.87
2023-04-10T07:02:24.736Z,12.10
2023-04-10T07:04:53.563Z,9.87
2023-04-10T07:07:20.716Z,10.30
2023-04-10T07:09:47.767Z,9.63
2023-04-10T07:12:14.896Z,8.63
2023-04-10T07:14:42.281Z,10.20
2023-04-10T07:17:09.829Z,10.07
2023-04-10T07:19:38.067Z,10.83
2023-04-10T07:22:05.223Z,9.13
2023-04-10T07:24:32.699Z,7.83
2023-04-10T07:27:01.442Z,8.10
2023-04-10T07:29:28.561Z,8.47
2023-04-10T07:31:55.718Z,9.17
2023-04-10T07:34:22.897Z,9.70
2023-04-10T07:36:50.117Z,11.93
2023-04-10T07:39:17.194Z,8.80
2023-04-10T07:41:44.453Z,8.07
2023-04-10T07:44:13.086Z,8.60
2023-04-10T07:46:40.223Z,9.33
2023-04-10T07:49:08.686Z,9.57
2023-04-10T07:51:36.189Z,8.60
2023-04-10T07:54:04.210Z,8.80
2023-04-10T07:56:31.444Z,8.00
2023-04-10T07:59:00.644Z,8.73
2023-04-10T08:01:28.771Z,8.30
2023-04-10T08:03:59.104Z,7.87
2023-04-10T08:06:26.339Z,8.37
2023-04-10T08:08:53.750Z,9.53
2023-04-10T08:11:29.207Z,8.03
2023-04-10T08:13:58.522Z,9.43
2023-04-10T08:16:26.520Z,6.93
2023-04-10T08:18:54.834Z,7.47
2023-04-10T08:21:22.439Z,8.03
2023-04-10T08:23:53.891Z,7.43
2023-04-10T08:26:21.404Z,8.70
2023-04-10T08:28:52.728Z,7.90
2023-04-10T08:31:21.843Z,8.10
2023-04-10T08:33:49.325Z,8.07
2023-04-10T08:36:19.586Z,9.63
2023-04-10T08:38:47.653Z,8.23
2023-04-10T08:41:19.065Z,9.93
2023-04-10T08:43:46.485Z,8.70
2023-04-10T08:46:16.773Z,9.70
2023-04-10T08:49:05.861Z,7.93
2023-04-10T08:51:47.956Z,8.87
2023-04-10T08:54:25.413Z,8.93
2023-04-10T08:56:54.561Z,12.33
2023-04-10T08:59:22.011Z,10.73
2023-04-10T09:01:49.362Z,11.37
2023-04-10T09:04:19.793Z,10.00
2023-04-10T09:06:47.102Z,8.60
2023-04-10T09:09:14.169Z,9.93
2023-04-10T09:11:53.901Z,7.80
2023-04-10T09:14:22.346Z,8.13
2023-04-10T09:16:49.735Z,8.73
2023-04-10T09:19:33.306Z,9.07
2023-04-10T09:22:00.752Z,8.83
2023-04-10T09:24:27.968Z,7.53
2023-04-10T09:26:55.653Z,9.53
2023-04-10T09:29:22.766Z,8.30
2023-04-10T09:31:50.985Z,8.63
2023-04-10T09:34:19.724Z,7.03
2023-04-10T09:36:56.917Z,7.73
2023-04-10T09:39:34.018Z,7.40
2023-04-10T09:42:01.093Z,8.00
2023-04-10T09:44:32.634Z,7.87
2023-04-10T09:47:15.646Z,10.03
2023-04-10T09:50:01.208Z,7.03
2023-04-10T09:52:29.430Z,6.50
2023-04-10T09:55:01.386Z,7.47
2023-04-10T09:57:30.862Z,6.97
2023-04-10T09:59:59.867Z,8.03
2023-04-10T10:02:29.590Z,6.93
2023-04-10T10:05:00.884Z,6.63
2023-04-10T10:07:28.267Z,7.37
2023-04-10T10:09:55.396Z,6.03
2023-04-10T10:12:57.051Z,6.07
2023-04-10T10:15:41.320Z,6.70
2023-04-10T10:18:30.399Z,6.60
2023-04-10T10:20:57.607Z,6.17
2023-04-10T10:23:25.903Z,6.73
2023-04-10T10:25:54.549Z,6.90
2023-04-10T10:28:21.703Z,7.67
2023-04-10T10:30:49.834Z,8.20
2023-04-10T10:33:17.282Z,6.33
2023-04-10T10:35:44.557Z,6.40
2023-04-10T10:38:12.155Z,6.07
2023-04-10T10:40:54.651Z,5.30
2023-04-10T10:43:42.290Z,5.47
2023-04-10T10:46:28.287Z,6.00
2023-04-10T10:48:59.437Z,5.30
2023-04-10T10:51:49.031Z,5.20
2023-04-10T10:54:29.666Z,7.83
2023-04-10T10:56:56.837Z,5.50
2023-04-10T10:59:48.186Z,4.93
2023-04-10T11:02:19.428Z,5.50
2023-04-10T11:04:48.335Z,7.13
2023-04-10T11:07:16.488Z,4.60
2023-04-10T11:09:48.552Z,5.20
2023-04-10T11:12:20.343Z,4.60
2023-04-10T11:14:58.291Z,4.90
2023-04-10T11:17:51.303Z,5.07
2023-04-10T11:20:20.847Z,4.57
2023-04-10T11:23:07.972Z,4.73
2023-04-10T11:25:55.900Z,4.60
2023-04-10T11:28:36.242Z,5.93
2023-04-10T11:31:22.472Z,4.87
2023-04-10T11:33:57.441Z,4.10
2023-04-10T11:36:24.590Z,4.13
2023-04-10T11:38:56.183Z,4.40
2023-04-10T11:41:28.538Z,4.37
2023-04-10T11:43:55.703Z,4.83
2023-04-10T11:46:22.955Z,5.17
2023-04-10T11:49:03.122Z,4.50
2023-04-10T11:51:30.939Z,4.40
2023-04-10T11:54:10.725Z,4.30
2023-04-10T11:56:42.112Z,5.40
2023-04-10T11:59:19.487Z,4.50
2023-04-10T12:01:47.290Z,6.37
2023-04-10T12:04:18.882Z,4.70
2023-04-10T12:06:53.494Z,4.10
2023-04-10T12:09:21.363Z,4.67
2023-04-10T12:11:53.213Z,4.23
2023-04-10T12:14:21.993Z,4.20
2023-04-10T12:16:50.221Z,4.77
2023-04-10T12:19:18.057Z,4.07
2023-04-10T12:21:45.786Z,4.03
2023-04-10T12:24:13.370Z,4.83
2023-04-10T12:26:47.862Z,3.60
2023-04-10T12:29:15.451Z,4.50
2023-04-10T12:31:42.835Z,5.67
2023-04-10T12:34:11.447Z,3.80
2023-04-10T12:36:38.572Z,3.80
2023-04-10T12:39:06.124Z,3.70
2023-04-10T12:41:34.229Z,3.40
2023-04-10T12:44:14.302Z,4.17
2023-04-10T12:46:43.094Z,5.87
2023-04-10T12:49:15.007Z,2.53
2023-04-10T12:51:49.580Z,2.83
2023-04-10T12:54:36.887Z,3.27
2023-04-10T12:57:04.428Z,2.37
2023-04-10T12:59:31.798Z,2.30
2023-04-10T13:01:59.055Z,3.87
2023-04-10T13:04:26.370Z,2.13
2023-04-10T13:06:53.662Z,4.63
2023-04-10T13:09:21.728Z,2.60
2023-04-10T13:11:51.667Z,2.50
2023-04-10T13:14:19.691Z,2.30
2023-04-10T13:16:46.943Z,2.40
2023-04-10T13:19:14.125Z,2.20
2023-04-10T13:21:41.291Z,2.07
2023-04-10T13:24:08.359Z,2.47
2023-04-10T13:26:35.452Z,2.50
2023-04-10T13:29:02.521Z,2.57
2023-04-10T13:31:29.644Z,2.13
2023-04-10T13:33:56.768Z,2.60
2023-04-10T13:36:23.888Z,2.50
2023-04-10T13:38:51.048Z,2.67
2023-04-10T13:41:18.218Z,2.10
2023-04-10T13:43:45.386Z,2.40
2023-04-10T13:46:12.452Z,2.40
2023-04-10T13:48:41.389Z,2.40
2023-04-10T13:51:08.975Z,2.20
2023-04-10T13:53:36.131Z,2.03
2023-04-10T13:56:03.263Z,2.30
2023-04-10T13:58:31.999Z,2.50
2023-04-10T14:00:59.491Z,2.20
2023-04-10T14:03:26.857Z,2.73
2023-04-10T14:05:54.283Z,2.87
2023-04-10T14:08:21.472Z,2.67
2023-04-10T14:10:50.764Z,2.87
2023-04-10T14:13:18.175Z,2.30
2023-04-10T14:15:45.346Z,2.53
2023-04-10T14:18:12.546Z,3.23
2023-04-10T14:20:42.268Z,2.73
2023-04-10T14:23:09.582Z,2.40
2023-04-10T14:25:36.663Z,3.97
2023-04-10T14:28:03.760Z,2.57
2023-04-10T14:30:32.584Z,2.70
2023-04-10T14:32:59.938Z,3.20
2023-04-10T14:35:27.079Z,2.83
2023-04-10T14:37:55.505Z,2.80
2023-04-10T14:40:22.642Z,2.60
2023-04-10T14:42:49.692Z,2.47
2023-04-10T14:45:17.980Z,2.40
2023-04-10T14:47:45.423Z,2.47
2023-04-10T14:50:12.689Z,2.17
2023-04-10T14:52:39.862Z,4.20
2023-04-10T14:55:06.845Z,2.00
2023-04-10T14:57:33.903Z,2.93
2023-04-10T15:00:01.377Z,2.67
2023-04-10T15:02:29.891Z,2.40
2023-04-10T15:04:57.040Z,2.33
2023-04-10T15:07:24.517Z,3.50
2023-04-10T15:09:51.728Z,2.20
2023-04-10T15:12:20.826Z,1.90
2023-04-10T15:14:47.908Z,1.60
2023-04-10T15:17:15.373Z,2.40
2023-04-10T15:19:42.530Z,1.60
2023-04-10T15:22:09.695Z,1.70
2023-04-10T15:24:46.971Z,5.23
2023-04-10T15:27:16.691Z,1.73
2023-04-10T15:29:43.818Z,1.70
2023-04-10T15:32:10.903Z,1.67
2023-04-10T15:34:38.204Z,1.70
2023-04-10T15:37:05.276Z,2.30
2023-04-10T15:39:32.382Z,2.30
2023-04-10T15:42:00.279Z,2.23
2023-04-10T15:44:27.531Z,1.77
2023-04-10T15:46:54.639Z,2.13
2023-04-10T15:49:34.007Z,2.00
2023-04-10T15:52:04.128Z,2.10
2023-04-10T15:54:31.197Z,2.63
2023-04-10T15:56:58.283Z,1.83
2023-04-10T15:59:25.453Z,1.60
2023-04-10T16:01:52.536Z,2.07
2023-04-10T16:04:19.690Z,2.27
2023-04-10T16:06:46.840Z,1.83
2023-04-10T16:09:24.862Z,2.63
2023-04-10T16:11:53.325Z,2.40
2023-04-10T16:14:20.681Z,2.40
2023-04-10T16:16:47.785Z,2.07
2023-04-10T16:19:14.860Z,2.30
2023-04-10T16:21:42.803Z,2.17
2023-04-10T16:24:09.951Z,3.37
2023-04-10T16:26:37.015Z,2.30
2023-04-10T16:29:04.131Z,2.63
2023-04-10T16:31:31.327Z,2.30
2023-04-10T16:33:58.441Z,3.57
2023-04-10T16:36:27.007Z,2.10
2023-04-10T16:38:54.530Z,2.10
2023-04-10T16:41:22.752Z,2.50
2023-04-10T16:43:49.861Z,2.10
2023-04-10T16:46:17.114Z,2.87
2023-04-10T16:48:44.269Z,3.33
2023-04-10T16:51:17.481Z,2.40
2023-04-10T16:53:45.042Z,4.30
2023-04-10T16:56:12.197Z,2.27
2023-04-10T16:58:41.076Z,2.40
2023-04-10T17:01:18.049Z,2.20
2023-04-10T17:03:47.362Z,2.37
2023-04-10T17:06:15.832Z,2.87
2023-04-10T17:08:43.012Z,3.03
2023-04-10T17:11:10.242Z,3.27
2023-04-10T17:13:37.461Z,2.80
2023-04-10T17:16:05.353Z,2.20
2023-04-10T17:18:32.768Z,2.77
2023-04-10T17:20:59.928Z,2.07
2023-04-10T17:23:27.106Z,2.40
2023-04-10T17:25:54.424Z,2.40
2023-04-10T17:28:21.638Z,3.30
2023-04-10T17:30:48.864Z,3.00
2023-04-10T17:33:16.135Z,2.37
2023-04-10T17:35:43.353Z,2.43
2023-04-10T17:38:10.504Z,2.57
2023-04-10T17:40:40.737Z,2.30
2023-04-10T17:43:08.191Z,2.93
2023-04-10T17:45:41.236Z,2.40
2023-04-10T17:48:08.450Z,2.57
2023-04-10T17:50:35.827Z,2.30
2023-04-10T17:53:03.035Z,2.47
2023-04-10T17:55:30.152Z,2.57
2023-04-10T17:57:59.975Z,2.20
2023-04-10T18:00:27.184Z,2.53
2023-04-10T18:02:59.891Z,3.73
2023-04-10T18:05:34.770Z,3.60
2023-04-10T18:08:01.918Z,2.57
2023-04-10T18:10:29.079Z,2.20
2023-04-10T18:12:59.002Z,2.03
2023-04-10T18:15:26.419Z,3.03
2023-04-10T18:17:53.619Z,2.57
2023-04-10T18:20:20.955Z,2.50
2023-04-10T18:22:48.300Z,2.73
2023-04-10T18:25:16.080Z,2.40
2023-04-10T18:27:51.404Z,2.37
2023-04-10T18:30:22.635Z,2.60
2023-04-10T18:32:51.996Z,3.67
2023-04-10T18:35:19.016Z,1.83
2023-04-10T18:37:46.097Z,2.80
2023-04-10T18:40:16.227Z,2.07
2023-04-10T18:42:44.074Z,2.33
2023-04-10T18:45:12.996Z,2.30
2023-04-10T18:47:40.161Z,2.30
2023-04-10T18:50:10.138Z,2.30
2023-04-10T18:52:37.260Z,2.20
2023-04-10T18:55:04.705Z,2.13
2023-04-10T18:57:32.135Z,2.40
2023-04-10T18:59:59.503Z,2.53
2023-04-10T19:02:27.909Z,2.87
2023-04-10T19:04:55.362Z,1.77
2023-04-10T19:07:22.514Z,2.03
2023-04-10T19:09:49.601Z,3.20
2023-04-10T19:12:16.731Z,2.07
2023-04-10T19:14:43.834Z,2.10
2023-04-10T19:17:10.922Z,2.63
2023-04-10T19:19:38.080Z,2.30
2023-04-10T19:22:05.489Z,2.10
2023-04-10T19:24:33.197Z,2.03
2023-04-10T19:27:00.682Z,2.40
2023-04-10T19:29:27.760Z,1.97
2023-04-10T19:31:54.942Z,2.50
2023-04-10T19:34:22.050Z,2.87
2023-04-10T19:36:49.132Z,4.07
2023-04-10T19:39:16.218Z,1.93
2023-04-10T19:41:43.964Z,1.67
2023-04-10T19:44:11.093Z,2.60
2023-04-10T19:46:38.242Z,2.10
2023-04-10T19:49:05.536Z,2.30
2023-04-10T19:51:32.889Z,2.10
2023-04-10T19:54:00.124Z,1.77
2023-04-10T19:56:28.482Z,2.03
2023-04-10T19:58:55.930Z,1.57
2023-04-10T20:01:24.154Z,6.40
2023-04-10T20:03:51.768Z,4.23
2023-04-10T20:06:18.994Z,3.07
2023-04-10T20:08:46.103Z,4.80
2023-04-10T20:11:13.247Z,6.27
2023-04-10T20:13:41.311Z,2.20
2023-04-10T20:16:09.039Z,2.60
2023-04-10T20:18:36.565Z,2.30
2023-04-10T20:21:04.687Z,3.13
2023-04-10T20:23:31.796Z,2.30
2023-04-10T20:25:59.010Z,2.37
2023-04-10T20:28:26.130Z,3.47
2023-04-10T20:30:53.302Z,3.87
2023-04-10T20:33:20.387Z,2.93
2023-04-10T20:35:47.551Z,3.30
2023-04-10T20:38:14.760Z,2.37
2023-04-10T20:40:41.848Z,2.70
2023-04-10T20:43:12.171Z,4.07
2023-04-10T20:45:39.994Z,2.80
2023-04-10T20:48:07.429Z,3.47
2023-04-10T20:50:34.701Z,4.47
2023-04-10T20:53:01.807Z,3.40
2023-04-10T20:55:28.933Z,3.53
2023-04-10T20:57:56.014Z,5.00
2023-04-10T21:00:23.195Z,3.87
2023-04-10T21:02:50.440Z,2.67
2023-04-10T21:05:17.624Z,2.20
2023-04-10T21:07:45.912Z,3.93
2023-04-10T21:10:13.165Z,2.87
2023-04-10T21:12:40.541Z,2.93
2023-04-10T21:15:08.192Z,5.23
2023-04-10T21:17:35.290Z,2.40
2023-04-10T21:20:02.675Z,2.23
2023-04-10T21:22:29.790Z,3.13
2023-04-10T21:24:56.914Z,2.47
2023-04-10T21:27:24.420Z,3.30
2023-04-10T21:29:51.488Z,2.73
2023-04-10T21:32:18.658Z,3.10
2023-04-10T21:34:45.860Z,3.17
2023-04-10T21:37:12.952Z,3.10
2023-04-10T21:39:43.519Z,3.93
2023-04-10T21:42:10.577Z,4.63
2023-04-10T21:44:37.651Z,4.80
2023-04-10T21:47:04.805Z,3.40
2023-04-10T21:49:31.932Z,3.70
2023-04-10T21:51:59.233Z,2.63
2023-04-10T21:54:26.313Z,3.90
2023-04-10T21:56:53.396Z,3.80
2023-04-10T21:59:20.555Z,3.80
2023-04-10T22:01:47.799Z,3.63
2023-04-10T22:04:15.449Z,3.87
2023-04-10T22:06:42.705Z,5.97
2023-04-10T22:09:10.117Z,3.90
2023-04-10T22:11:39.030Z,4.50
2023-04-10T22:14:16.094Z,3.77
2023-04-10T22:16:46.115Z,3.40
2023-04-10T22:19:13.213Z,4.30
2023-04-10T22:21:40.284Z,2.50
2023-04-10T22:24:07.540Z,2.70
2023-04-10T22:26:35.040Z,3.33
2023-04-10T22:29:03.751Z,3.10
2023-04-10T22:31:31.077Z,3.90
2023-04-10T22:33:58.186Z,3.60
2023-04-10T22:36:26.123Z,5.20
2023-04-10T22:38:53.390Z,5.20
2023-04-10T22:41:20.885Z,2.67
2023-04-10T22:43:47.926Z,2.17
2023-04-10T22:46:15.285Z,2.27
2023-04-10T22:48:42.507Z,2.73
2023-04-10T22:51:12.552Z,2.83
2023-04-10T22:53:39.798Z,2.10
2023-04-10T22:56:07.849Z,3.03
2023-04-10T22:58:35.206Z,2.03
2023-04-10T23:01:02.292Z,1.53
2023-04-10T23:03:29.403Z,1.80
2023-04-10T23:05:56.501Z,2.10
2023-04-10T23:08:23.608Z,3.73
2023-04-10T23:10:53.255Z,4.33
2023-04-10T23:13:20.578Z,1.93
2023-04-10T23:15:54.311Z,2.40
2023-04-10T23:18:21.410Z,2.70
2023-04-10T23:20:48.663Z,2.03
2023-04-10T23:23:16.032Z,2.20
2023-04-10T23:25:43.426Z,3.37
2023-04-10T23:28:10.520Z,4.27
2023-04-10T23:30:37.655Z,2.03
2023-04-10T23:33:04.794Z,2.77
2023-04-10T23:35:32.137Z,1.93
2023-04-10T23:37:59.196Z,3.33
2023-04-10T23:40:26.324Z,3.37
2023-04-10T23:42:53.394Z,1.00
2023-04-10T23:45:20.499Z,3.20
2023-04-10T23:47:49.519Z,2.33
2023-04-10T23:50:17.932Z,6.27
2023-04-10T23:52:51.177Z,2.33
2023-04-10T23:55:18.541Z,2.67
2023-04-10T23:57:45.650Z,7.93
